sensor_id;sensor_type;location;lat;lon;timestamp;P1;durP1;ratioP1;P2;durP2;ratioP2
41693;SDS011;27377;50.666;9.150;2023-04-24T00:01:53;3.10;;;1.40;;
41693;SDS011;27377;50.666;9.150;2023-04-24T00:04:20;3.63;;;1.38;;
41693;SDS011;27377;50.666;9.150;2023-04-24T00:06:45;3.40;;;1.50;;
41693;SDS011;27377;50.666;9.150;2023-04-24T00:09:14;3.30;;;1.17;;
41693;SDS011;27377;50.666;9.150;2023-04-24T00:11:40;3.08;;;1.20;;
41693;SDS011;27377;50.666;9.150;2023-04-24T00:14:06;2.78;;;1.20;;
41693;SDS011;27377;50.666;9.150;2023-04-24T00:16:31;3.22;;;1.15;;
41693;SDS011;27377;50.666;9.150;2023-04-24T00:18:57;3.08;;;1.30;;
41693;SDS011;27377;50.666;9.150;2023-04-24T00:21:23;3.15;;;1.10;;
41693;SDS011;27377;50.666;9.150;2023-04-24T00:23:50;2.40;;;1.08;;
41693;SDS011;27377;50.666;9.150;2023-04-24T00:26:16;3.13;;;1.13;;
41693;SDS011;27377;50.666;9.150;2023-04-24T00:28:41;2.85;;;1.17;;
41693;SDS011;27377;50.666;9.150;2023-04-24T00:31:07;2.83;;;1.08;;
41693;SDS011;27377;50.666;9.150;2023-04-24T00:33:33;3.38;;;1.10;;
41693;SDS011;27377;50.666;9.150;2023-04-24T00:35:58;4.05;;;1.17;;
41693;SDS011;27377;50.666;9.150;2023-04-24T00:38:24;3.55;;;1.05;;
41693;SDS011;27377;50.666;9.150;2023-04-24T00:40:50;1.90;;;0.98;;
41693;SDS011;27377;50.666;9.150;2023-04-24T00:43:16;4.05;;;1.23;;
41693;SDS011;27377;50.666;9.150;2023-04-24T00:45:41;2.83;;;1.02;;
41693;SDS011;27377;50.666;9.150;2023-04-24T00:48:07;2.63;;;1.10;;
41693;SDS011;27377;50.666;9.150;2023-04-24T00:50:32;2.70;;;1.00;;
41693;SDS011;27377;50.666;9.150;2023-04-24T00:53:00;3.40;;;1.00;;
41693;SDS011;27377;50.666;9.150;2023-04-24T00:55:26;2.57;;;1.10;;
41693;SDS011;27377;50.666;9.150;2023-04-24T00:57:51;2.97;;;1.00;;
41693;SDS011;27377;50.666;9.150;2023-04-24T01:00:17;2.53;;;1.00;;
41693;SDS011;27377;50.666;9.150;2023-04-24T01:02:43;3.50;;;1.00;;
41693;SDS011;27377;50.666;9.150;2023-04-24T01:05:10;6.50;;;1.40;;
41693;SDS011;27377;50.666;9.150;2023-04-24T01:07:38;3.10;;;1.08;;
41693;SDS011;27377;50.666;9.150;2023-04-24T01:10:05;2.45;;;0.93;;
41693;SDS011;27377;50.666;9.150;2023-04-24T01:12:33;2.67;;;1.00;;
41693;SDS011;27377;50.666;9.150;2023-04-24T01:14:58;2.47;;;1.00;;
41693;SDS011;27377;50.666;9.150;2023-04-24T01:17:24;3.67;;;1.17;;
41693;SDS011;27377;50.666;9.150;2023-04-24T01:19:50;2.67;;;0.93;;
41693;SDS011;27377;50.666;9.150;2023-04-24T01:22:18;2.97;;;1.08;;
41693;SDS011;27377;50.666;9.150;2023-04-24T01:24:45;2.95;;;0.98;;
41693;SDS011;27377;50.666;9.150;2023-04-24T01:27:11;2.92;;;1.10;;
41693;SDS011;27377;50.666;9.150;2023-04-24T01:29:37;3.17;;;1.37;;
41693;SDS011;27377;50.666;9.150;2023-04-24T01:32:03;2.28;;;1.00;;
41693;SDS011;27377;50.666;9.150;2023-04-24T01:34:30;3.53;;;1.10;;
41693;SDS011;27377;50.666;9.150;2023-04-24T01:36:55;3.40;;;1.20;;
41693;SDS011;27377;50.666;9.150;2023-04-24T01:39:21;3.40;;;1.10;;
41693;SDS011;27377;50.666;9.150;2023-04-24T01:41:48;3.10;;;1.10;;
41693;SDS011;27377;50.666;9.150;2023-04-24T01:44:15;3.95;;;1.00;;
41693;SDS011;27377;50.666;9.150;2023-04-24T01:46:41;3.30;;;1.10;;
41693;SDS011;27377;50.666;9.150;2023-04-24T01:49:06;3.42;;;1.20;;
41693;SDS011;27377;50.666;9.150;2023-04-24T01:51:32;2.87;;;1.10;;
41693;SDS011;27377;50.666;9.150;2023-04-24T01:53:58;2.60;;;1.10;;
41693;SDS011;27377;50.666;9.150;2023-04-24T01:56:23;2.80;;;1.10;;
41693;SDS011;27377;50.666;9.150;2023-04-24T01:58:50;3.88;;;1.10;;
41693;SDS011;27377;50.666;9.150;2023-04-24T02:01:19;4.15;;;1.10;;
41693;SDS011;27377;50.666;9.150;2023-04-24T02:03:45;2.47;;;1.00;;
41693;SDS011;27377;50.666;9.150;2023-04-24T02:06:10;4.60;;;1.30;;
41693;SDS011;27377;50.666;9.150;2023-04-24T02:08:36;3.43;;;1.13;;
41693;SDS011;27377;50.666;9.150;2023-04-24T02:11:01;2.97;;;1.10;;
41693;SDS011;27377;50.666;9.150;2023-04-24T02:13:27;3.83;;;1.07;;
41693;SDS011;27377;50.666;9.150;2023-04-24T02:15:55;2.47;;;1.08;;
41693;SDS011;27377;50.666;9.150;2023-04-24T02:18:20;2.43;;;1.17;;
41693;SDS011;27377;50.666;9.150;2023-04-24T02:20:47;3.73;;;1.30;;
41693;SDS011;27377;50.666;9.150;2023-04-24T02:23:13;4.57;;;1.20;;
41693;SDS011;27377;50.666;9.150;2023-04-24T02:25:38;3.23;;;1.30;;
41693;SDS011;27377;50.666;9.150;2023-04-24T02:28:04;2.50;;;1.10;;
41693;SDS011;27377;50.666;9.150;2023-04-24T02:30:29;2.70;;;1.20;;
41693;SDS011;27377;50.666;9.150;2023-04-24T02:32:55;3.77;;;1.10;;
41693;SDS011;27377;50.666;9.150;2023-04-24T02:35:21;2.97;;;1.17;;
41693;SDS011;27377;50.666;9.150;2023-04-24T02:37:46;2.97;;;1.03;;
41693;SDS011;27377;50.666;9.150;2023-04-24T02:40:12;2.90;;;1.13;;
41693;SDS011;27377;50.666;9.150;2023-04-24T02:42:37;4.60;;;1.10;;
41693;SDS011;27377;50.666;9.150;2023-04-24T02:45:03;3.33;;;1.20;;
41693;SDS011;27377;50.666;9.150;2023-04-24T02:47:30;2.80;;;1.10;;
41693;SDS011;27377;50.666;9.150;2023-04-24T02:49:55;4.70;;;1.10;;
41693;SDS011;27377;50.666;9.150;2023-04-24T02:52:21;2.83;;;1.20;;
41693;SDS011;27377;50.666;9.150;2023-04-24T02:54:46;2.37;;;1.03;;
41693;SDS011;27377;50.666;9.150;2023-04-24T02:57:12;2.60;;;1.00;;
41693;SDS011;27377;50.666;9.150;2023-04-24T02:59:37;3.30;;;1.15;;
41693;SDS011;27377;50.666;9.150;2023-04-24T03:02:03;4.95;;;1.10;;
41693;SDS011;27377;50.666;9.150;2023-04-24T03:04:28;5.00;;;1.20;;
41693;SDS011;27377;50.666;9.150;2023-04-24T03:06:54;4.90;;;1.20;;
41693;SDS011;27377;50.666;9.150;2023-04-24T03:09:20;3.42;;;1.27;;
41693;SDS011;27377;50.666;9.150;2023-04-24T03:11:46;3.17;;;1.13;;
41693;SDS011;27377;50.666;9.150;2023-04-24T03:14:12;4.13;;;1.13;;
41693;SDS011;27377;50.666;9.150;2023-04-24T03:16:37;2.83;;;1.10;;
41693;SDS011;27377;50.666;9.150;2023-04-24T03:19:03;3.40;;;1.03;;
41693;SDS011;27377;50.666;9.150;2023-04-24T03:21:28;2.97;;;1.10;;
41693;SDS011;27377;50.666;9.150;2023-04-24T03:23:54;2.17;;;1.10;;
41693;SDS011;27377;50.666;9.150;2023-04-24T03:26:19;3.87;;;1.10;;
41693;SDS011;27377;50.666;9.150;2023-04-24T03:28:45;2.93;;;1.00;;
41693;SDS011;27377;50.666;9.150;2023-04-24T03:31:13;3.20;;;1.20;;
41693;SDS011;27377;50.666;9.150;2023-04-24T03:33:40;3.10;;;1.20;;
41693;SDS011;27377;50.666;9.150;2023-04-24T03:36:06;3.87;;;1.30;;
41693;SDS011;27377;50.666;9.150;2023-04-24T03:38:35;3.00;;;1.20;;
41693;SDS011;27377;50.666;9.150;2023-04-24T03:41:00;3.83;;;1.40;;
41693;SDS011;27377;50.666;9.150;2023-04-24T03:43:25;5.60;;;1.50;;
41693;SDS011;27377;50.666;9.150;2023-04-24T03:45:52;3.13;;;1.20;;
41693;SDS011;27377;50.666;9.150;2023-04-24T03:48:18;3.83;;;1.47;;
41693;SDS011;27377;50.666;9.150;2023-04-24T03:50:43;4.37;;;1.40;;
41693;SDS011;27377;50.666;9.150;2023-04-24T03:53:09;4.00;;;1.40;;
41693;SDS011;27377;50.666;9.150;2023-04-24T03:55:35;3.20;;;1.20;;
41693;SDS011;27377;50.666;9.150;2023-04-24T03:58:01;3.45;;;1.15;;
41693;SDS011;27377;50.666;9.150;2023-04-24T04:00:26;4.07;;;1.30;;
41693;SDS011;27377;50.666;9.150;2023-04-24T04:02:52;3.43;;;1.33;;
41693;SDS011;27377;50.666;9.150;2023-04-24T04:05:18;3.87;;;1.30;;
41693;SDS011;27377;50.666;9.150;2023-04-24T04:07:43;3.57;;;1.37;;
41693;SDS011;27377;50.666;9.150;2023-04-24T04:10:09;4.70;;;1.57;;
41693;SDS011;27377;50.666;9.150;2023-04-24T04:12:35;3.75;;;1.23;;
41693;SDS011;27377;50.666;9.150;2023-04-24T04:15:03;3.45;;;1.50;;
41693;SDS011;27377;50.666;9.150;2023-04-24T04:17:30;3.78;;;1.45;;
41693;SDS011;27377;50.666;9.150;2023-04-24T04:19:56;3.30;;;1.42;;
41693;SDS011;27377;50.666;9.150;2023-04-24T04:22:22;3.23;;;1.40;;
41693;SDS011;27377;50.666;9.150;2023-04-24T04:24:48;3.17;;;1.60;;
41693;SDS011;27377;50.666;9.150;2023-04-24T04:27:15;3.00;;;1.50;;
41693;SDS011;27377;50.666;9.150;2023-04-24T04:29:43;3.77;;;1.50;;
41693;SDS011;27377;50.666;9.150;2023-04-24T04:32:09;3.13;;;1.35;;
41693;SDS011;27377;50.666;9.150;2023-04-24T04:34:35;3.93;;;1.67;;
41693;SDS011;27377;50.666;9.150;2023-04-24T04:37:02;2.85;;;1.50;;
41693;SDS011;27377;50.666;9.150;2023-04-24T04:39:28;3.63;;;1.40;;
41693;SDS011;27377;50.666;9.150;2023-04-24T04:41:55;4.32;;;1.67;;
41693;SDS011;27377;50.666;9.150;2023-04-24T04:44:20;3.63;;;1.40;;
41693;SDS011;27377;50.666;9.150;2023-04-24T04:46:47;3.30;;;1.50;;
41693;SDS011;27377;50.666;9.150;2023-04-24T04:49:13;2.95;;;1.60;;
41693;SDS011;27377;50.666;9.150;2023-04-24T04:51:41;3.17;;;1.40;;
41693;SDS011;27377;50.666;9.150;2023-04-24T04:54:10;3.60;;;1.52;;
41693;SDS011;27377;50.666;9.150;2023-04-24T04:56:35;2.60;;;1.43;;
41693;SDS011;27377;50.666;9.150;2023-04-24T04:59:01;2.03;;;1.30;;
41693;SDS011;27377;50.666;9.150;2023-04-24T05:01:26;3.23;;;1.57;;
41693;SDS011;27377;50.666;9.150;2023-04-24T05:03:52;3.40;;;1.60;;
41693;SDS011;27377;50.666;9.150;2023-04-24T05:06:18;3.08;;;1.58;;
41693;SDS011;27377;50.666;9.150;2023-04-24T05:08:44;2.53;;;1.63;;
41693;SDS011;27377;50.666;9.150;2023-04-24T05:11:09;3.13;;;1.70;;
41693;SDS011;27377;50.666;9.150;2023-04-24T05:13:35;3.08;;;1.52;;
41693;SDS011;27377;50.666;9.150;2023-04-24T05:16:00;3.58;;;1.63;;
41693;SDS011;27377;50.666;9.150;2023-04-24T05:18:26;3.72;;;1.63;;
41693;SDS011;27377;50.666;9.150;2023-04-24T05:20:51;4.70;;;1.70;;
41693;SDS011;27377;50.666;9.150;2023-04-24T05:23:17;2.60;;;1.53;;
41693;SDS011;27377;50.666;9.150;2023-04-24T05:25:42;2.60;;;1.60;;
41693;SDS011;27377;50.666;9.150;2023-04-24T05:28:08;2.53;;;1.40;;
41693;SDS011;27377;50.666;9.150;2023-04-24T05:30:33;5.93;;;1.70;;
41693;SDS011;27377;50.666;9.150;2023-04-24T05:32:59;2.70;;;1.40;;
41693;SDS011;27377;50.666;9.150;2023-04-24T05:35:24;2.77;;;1.40;;
41693;SDS011;27377;50.666;9.150;2023-04-24T05:37:50;2.60;;;1.40;;
41693;SDS011;27377;50.666;9.150;2023-04-24T05:40:15;3.13;;;1.50;;
41693;SDS011;27377;50.666;9.150;2023-04-24T05:42:42;2.73;;;1.50;;
41693;SDS011;27377;50.666;9.150;2023-04-24T05:45:07;3.80;;;1.57;;
41693;SDS011;27377;50.666;9.150;2023-04-24T05:47:34;3.27;;;1.57;;
41693;SDS011;27377;50.666;9.150;2023-04-24T05:49:59;3.37;;;1.60;;
41693;SDS011;27377;50.666;9.150;2023-04-24T05:52:25;2.40;;;1.50;;
41693;SDS011;27377;50.666;9.150;2023-04-24T05:54:50;3.80;;;1.57;;
41693;SDS011;27377;50.666;9.150;2023-04-24T05:57:16;2.73;;;1.60;;
41693;SDS011;27377;50.666;9.150;2023-04-24T05:59:41;3.40;;;1.70;;
41693;SDS011;27377;50.666;9.150;2023-04-24T06:02:07;3.20;;;1.83;;
41693;SDS011;27377;50.666;9.150;2023-04-24T06:04:32;2.83;;;1.80;;
41693;SDS011;27377;50.666;9.150;2023-04-24T06:06:58;2.80;;;1.70;;
41693;SDS011;27377;50.666;9.150;2023-04-24T06:09:25;3.50;;;1.77;;
41693;SDS011;27377;50.666;9.150;2023-04-24T06:11:51;3.70;;;1.70;;
41693;SDS011;27377;50.666;9.150;2023-04-24T06:14:21;4.10;;;1.80;;
41693;SDS011;27377;50.666;9.150;2023-04-24T06:16:47;4.17;;;1.70;;
41693;SDS011;27377;50.666;9.150;2023-04-24T06:19:12;3.27;;;1.80;;
41693;SDS011;27377;50.666;9.150;2023-04-24T06:21:38;3.27;;;1.80;;
41693;SDS011;27377;50.666;9.150;2023-04-24T06:24:03;2.73;;;1.67;;
41693;SDS011;27377;50.666;9.150;2023-04-24T06:26:29;3.53;;;1.60;;
41693;SDS011;27377;50.666;9.150;2023-04-24T06:28:55;3.90;;;1.80;;
41693;SDS011;27377;50.666;9.150;2023-04-24T06:31:20;3.37;;;1.70;;
41693;SDS011;27377;50.666;9.150;2023-04-24T06:33:48;3.53;;;1.60;;
41693;SDS011;27377;50.666;9.150;2023-04-24T06:36:13;2.97;;;1.70;;
41693;SDS011;27377;50.666;9.150;2023-04-24T06:38:39;4.03;;;1.50;;
41693;SDS011;27377;50.666;9.150;2023-04-24T06:41:05;3.37;;;1.80;;
41693;SDS011;27377;50.666;9.150;2023-04-24T06:43:31;2.97;;;1.77;;
41693;SDS011;27377;50.666;9.150;2023-04-24T06:45:57;4.22;;;1.70;;
41693;SDS011;27377;50.666;9.150;2023-04-24T06:48:23;5.07;;;1.80;;
41693;SDS011;27377;50.666;9.150;2023-04-24T06:50:50;4.22;;;1.90;;
41693;SDS011;27377;50.666;9.150;2023-04-24T06:53:15;4.00;;;1.93;;
41693;SDS011;27377;50.666;9.150;2023-04-24T06:55:41;4.03;;;2.10;;
41693;SDS011;27377;50.666;9.150;2023-04-24T06:58:08;4.17;;;2.20;;
41693;SDS011;27377;50.666;9.150;2023-04-24T07:00:34;4.32;;;2.40;;
41693;SDS011;27377;50.666;9.150;2023-04-24T07:02:59;3.90;;;2.50;;
41693;SDS011;27377;50.666;9.150;2023-04-24T07:05:26;4.28;;;2.60;;
41693;SDS011;27377;50.666;9.150;2023-04-24T07:07:51;5.50;;;2.60;;
41693;SDS011;27377;50.666;9.150;2023-04-24T07:10:18;5.50;;;3.00;;
41693;SDS011;27377;50.666;9.150;2023-04-24T07:12:43;5.23;;;2.93;;
41693;SDS011;27377;50.666;9.150;2023-04-24T07:15:09;5.05;;;3.10;;
41693;SDS011;27377;50.666;9.150;2023-04-24T07:17:35;4.82;;;3.08;;
41693;SDS011;27377;50.666;9.150;2023-04-24T07:20:03;5.60;;;2.90;;
41693;SDS011;27377;50.666;9.150;2023-04-24T07:22:29;5.57;;;3.08;;
41693;SDS011;27377;50.666;9.150;2023-04-24T07:24:55;3.73;;;2.60;;
41693;SDS011;27377;50.666;9.150;2023-04-24T07:27:20;6.33;;;3.00;;
41693;SDS011;27377;50.666;9.150;2023-04-24T07:29:46;4.60;;;3.10;;
41693;SDS011;27377;50.666;9.150;2023-04-24T07:32:11;4.85;;;2.85;;
41693;SDS011;27377;50.666;9.150;2023-04-24T07:34:37;4.28;;;2.80;;
41693;SDS011;27377;50.666;9.150;2023-04-24T07:37:03;5.13;;;3.00;;
41693;SDS011;27377;50.666;9.150;2023-04-24T07:39:28;6.00;;;3.17;;
41693;SDS011;27377;50.666;9.150;2023-04-24T07:41:54;4.80;;;2.90;;
41693;SDS011;27377;50.666;9.150;2023-04-24T07:44:19;6.50;;;3.20;;
41693;SDS011;27377;50.666;9.150;2023-04-24T07:46:45;5.05;;;3.00;;
41693;SDS011;27377;50.666;9.150;2023-04-24T07:49:10;4.45;;;2.97;;
41693;SDS011;27377;50.666;9.150;2023-04-24T07:51:36;4.63;;;2.97;;
41693;SDS011;27377;50.666;9.150;2023-04-24T07:54:03;4.40;;;2.80;;
41693;SDS011;27377;50.666;9.150;2023-04-24T07:56:31;5.10;;;2.92;;
41693;SDS011;27377;50.666;9.150;2023-04-24T07:58:56;5.13;;;2.73;;
41693;SDS011;27377;50.666;9.150;2023-04-24T08:01:22;5.77;;;3.03;;
41693;SDS011;27377;50.666;9.150;2023-04-24T08:03:47;4.67;;;2.90;;
41693;SDS011;27377;50.666;9.150;2023-04-24T08:06:13;4.90;;;2.90;;
41693;SDS011;27377;50.666;9.150;2023-04-24T08:08:38;4.73;;;2.80;;
41693;SDS011;27377;50.666;9.150;2023-04-24T08:11:04;6.97;;;3.17;;
41693;SDS011;27377;50.666;9.150;2023-04-24T08:13:30;5.67;;;3.10;;
41693;SDS011;27377;50.666;9.150;2023-04-24T08:15:56;6.03;;;3.30;;
41693;SDS011;27377;50.666;9.150;2023-04-24T08:18:22;5.07;;;3.15;;
41693;SDS011;27377;50.666;9.150;2023-04-24T08:20:47;4.65;;;3.10;;
41693;SDS011;27377;50.666;9.150;2023-04-24T08:23:13;6.03;;;3.40;;
41693;SDS011;27377;50.666;9.150;2023-04-24T08:25:38;5.45;;;3.40;;
41693;SDS011;27377;50.666;9.150;2023-04-24T08:28:05;5.25;;;3.35;;
41693;SDS011;27377;50.666;9.150;2023-04-24T08:30:31;5.20;;;3.20;;
41693;SDS011;27377;50.666;9.150;2023-04-24T08:32:57;6.40;;;3.37;;
41693;SDS011;27377;50.666;9.150;2023-04-24T08:35:23;4.65;;;3.03;;
41693;SDS011;27377;50.666;9.150;2023-04-24T08:37:48;6.45;;;3.17;;
41693;SDS011;27377;50.666;9.150;2023-04-24T08:40:15;4.82;;;2.90;;
41693;SDS011;27377;50.666;9.150;2023-04-24T08:42:42;4.60;;;2.90;;
41693;SDS011;27377;50.666;9.150;2023-04-24T08:45:09;4.93;;;3.17;;
41693;SDS011;27377;50.666;9.150;2023-04-24T08:47:37;5.22;;;2.85;;
41693;SDS011;27377;50.666;9.150;2023-04-24T08:50:03;4.83;;;3.20;;
41693;SDS011;27377;50.666;9.150;2023-04-24T08:52:31;6.53;;;3.00;;
41693;SDS011;27377;50.666;9.150;2023-04-24T08:54:58;6.28;;;3.08;;
41693;SDS011;27377;50.666;9.150;2023-04-24T08:57:25;5.10;;;2.90;;
41693;SDS011;27377;50.666;9.150;2023-04-24T08:59:52;7.35;;;3.05;;
41693;SDS011;27377;50.666;9.150;2023-04-24T09:02:19;5.07;;;3.00;;
41693;SDS011;27377;50.666;9.150;2023-04-24T09:04:46;5.38;;;2.75;;
41693;SDS011;27377;50.666;9.150;2023-04-24T09:07:12;5.15;;;2.67;;
41693;SDS011;27377;50.666;9.150;2023-04-24T09:09:41;4.40;;;2.50;;
41693;SDS011;27377;50.666;9.150;2023-04-24T09:12:07;4.53;;;2.50;;
41693;SDS011;27377;50.666;9.150;2023-04-24T09:14:34;4.78;;;2.45;;
41693;SDS011;27377;50.666;9.150;2023-04-24T09:17:02;5.53;;;2.70;;
41693;SDS011;27377;50.666;9.150;2023-04-24T09:19:27;4.00;;;2.42;;
41693;SDS011;27377;50.666;9.150;2023-04-24T09:21:53;4.50;;;2.53;;
41693;SDS011;27377;50.666;9.150;2023-04-24T09:24:20;4.97;;;2.13;;
41693;SDS011;27377;50.666;9.150;2023-04-24T09:26:50;3.77;;;2.20;;
41693;SDS011;27377;50.666;9.150;2023-04-24T09:29:22;4.30;;;2.20;;
41693;SDS011;27377;50.666;9.150;2023-04-24T09:31:48;3.03;;;1.90;;
41693;SDS011;27377;50.666;9.150;2023-04-24T09:34:13;3.30;;;1.90;;
41693;SDS011;27377;50.666;9.150;2023-04-24T09:36:40;2.97;;;1.80;;
41693;SDS011;27377;50.666;9.150;2023-04-24T09:39:13;2.63;;;1.60;;
41693;SDS011;27377;50.666;9.150;2023-04-24T09:41:53;2.90;;;1.77;;
41693;SDS011;27377;50.666;9.150;2023-04-24T09:44:24;3.00;;;1.70;;
41693;SDS011;27377;50.666;9.150;2023-04-24T09:46:51;3.65;;;1.80;;
41693;SDS011;27377;50.666;9.150;2023-04-24T09:49:25;3.22;;;1.70;;
41693;SDS011;27377;50.666;9.150;2023-04-24T09:51:52;4.20;;;1.63;;
41693;SDS011;27377;50.666;9.150;2023-04-24T09:54:26;3.38;;;1.60;;
41693;SDS011;27377;50.666;9.150;2023-04-24T09:56:52;3.00;;;1.70;;
41693;SDS011;27377;50.666;9.150;2023-04-24T09:59:20;3.05;;;1.75;;
41693;SDS011;27377;50.666;9.150;2023-04-24T10:01:47;4.95;;;1.70;;
41693;SDS011;27377;50.666;9.150;2023-04-24T10:04:23;3.30;;;1.67;;
41693;SDS011;27377;50.666;9.150;2023-04-24T10:06:51;4.15;;;1.50;;
41693;SDS011;27377;50.666;9.150;2023-04-24T10:09:18;5.10;;;1.60;;
41693;SDS011;27377;50.666;9.150;2023-04-24T10:11:45;2.45;;;1.30;;
41693;SDS011;27377;50.666;9.150;2023-04-24T10:14:19;3.30;;;1.52;;
41693;SDS011;27377;50.666;9.150;2023-04-24T10:16:46;4.22;;;1.48;;
41693;SDS011;27377;50.666;9.150;2023-04-24T10:19:13;2.20;;;1.40;;
41693;SDS011;27377;50.666;9.150;2023-04-24T10:21:40;2.50;;;1.42;;
41693;SDS011;27377;50.666;9.150;2023-04-24T10:24:10;4.10;;;1.52;;
41693;SDS011;27377;50.666;9.150;2023-04-24T10:26:37;2.50;;;1.50;;
41693;SDS011;27377;50.666;9.150;2023-04-24T10:29:04;2.83;;;1.40;;
41693;SDS011;27377;50.666;9.150;2023-04-24T10:31:34;2.35;;;1.40;;
41693;SDS011;27377;50.666;9.150;2023-04-24T10:34:01;2.97;;;1.40;;
41693;SDS011;27377;50.666;9.150;2023-04-24T10:36:28;2.80;;;1.40;;
41693;SDS011;27377;50.666;9.150;2023-04-24T10:38:57;2.38;;;1.23;;
41693;SDS011;27377;50.666;9.150;2023-04-24T10:41:25;2.60;;;1.33;;
41693;SDS011;27377;50.666;9.150;2023-04-24T10:44:04;2.85;;;1.40;;
41693;SDS011;27377;50.666;9.150;2023-04-24T10:46:30;4.20;;;1.70;;
41693;SDS011;27377;50.666;9.150;2023-04-24T10:48:56;2.50;;;1.30;;
41693;SDS011;27377;50.666;9.150;2023-04-24T10:51:23;2.00;;;1.20;;
41693;SDS011;27377;50.666;9.150;2023-04-24T10:53:50;2.22;;;1.20;;
41693;SDS011;27377;50.666;9.150;2023-04-24T10:56:16;2.13;;;1.10;;
41693;SDS011;27377;50.666;9.150;2023-04-24T10:58:49;1.90;;;0.98;;
41693;SDS011;27377;50.666;9.150;2023-04-24T11:01:27;2.30;;;0.90;;
41693;SDS011;27377;50.666;9.150;2023-04-24T11:03:54;3.55;;;0.90;;
41693;SDS011;27377;50.666;9.150;2023-04-24T11:06:28;1.87;;;0.80;;
41693;SDS011;27377;50.666;9.150;2023-04-24T11:09:03;1.63;;;0.90;;
41693;SDS011;27377;50.666;9.150;2023-04-24T11:11:31;1.58;;;0.80;;
41693;SDS011;27377;50.666;9.150;2023-04-24T11:16:26;1.40;;;0.60;;
41693;SDS011;27377;50.666;9.150;2023-04-24T11:21:39;1.10;;;0.70;;
41693;SDS011;27377;50.666;9.150;2023-04-24T11:26:56;1.25;;;0.80;;
41693;SDS011;27377;50.666;9.150;2023-04-24T11:29:39;1.98;;;0.68;;
41693;SDS011;27377;50.666;9.150;2023-04-24T11:32:16;1.02;;;0.65;;
41693;SDS011;27377;50.666;9.150;2023-04-24T11:34:53;0.93;;;0.70;;
41693;SDS011;27377;50.666;9.150;2023-04-24T11:37:21;1.75;;;0.60;;
41693;SDS011;27377;50.666;9.150;2023-04-24T11:40:08;0.60;;;0.50;;
41693;SDS011;27377;50.666;9.150;2023-04-24T11:42:39;1.10;;;0.60;;
41693;SDS011;27377;50.666;9.150;2023-04-24T11:45:09;1.20;;;0.60;;
41693;SDS011;27377;50.666;9.150;2023-04-24T11:47:36;0.52;;;0.50;;
41693;SDS011;27377;50.666;9.150;2023-04-24T11:50:07;0.40;;;0.40;;
41693;SDS011;27377;50.666;9.150;2023-04-24T11:52:36;0.85;;;0.50;;
41693;SDS011;27377;50.666;9.150;2023-04-24T11:55:03;0.80;;;0.60;;
41693;SDS011;27377;50.666;9.150;2023-04-24T11:57:31;1.10;;;0.47;;
41693;SDS011;27377;50.666;9.150;2023-04-24T12:00:01;0.52;;;0.50;;
41693;SDS011;27377;50.666;9.150;2023-04-24T12:02:29;0.52;;;0.40;;
41693;SDS011;27377;50.666;9.150;2023-04-24T12:04:54;0.40;;;0.30;;
41693;SDS011;27377;50.666;9.150;2023-04-24T12:07:21;0.55;;;0.32;;
41693;SDS011;27377;50.666;9.150;2023-04-24T12:09:48;2.80;;;0.40;;
41693;SDS011;27377;50.666;9.150;2023-04-24T12:12:19;0.30;;;0.20;;
41693;SDS011;27377;50.666;9.150;2023-04-24T12:14:48;1.40;;;0.43;;
41693;SDS011;27377;50.666;9.150;2023-04-24T12:17:15;1.00;;;0.20;;
41693;SDS011;27377;50.666;9.150;2023-04-24T12:19:45;0.60;;;0.30;;
41693;SDS011;27377;50.666;9.150;2023-04-24T12:22:12;0.23;;;0.23;;
41693;SDS011;27377;50.666;9.150;2023-04-24T12:24:55;0.57;;;0.35;;
41693;SDS011;27377;50.666;9.150;2023-04-24T12:27:25;0.80;;;0.30;;
41693;SDS011;27377;50.666;9.150;2023-04-24T12:29:55;0.57;;;0.30;;
41693;SDS011;27377;50.666;9.150;2023-04-24T12:32:22;0.38;;;0.30;;
41693;SDS011;27377;50.666;9.150;2023-04-24T12:34:49;0.20;;;0.20;;
41693;SDS011;27377;50.666;9.150;2023-04-24T12:37:15;0.68;;;0.30;;
41693;SDS011;27377;50.666;9.150;2023-04-24T12:39:44;0.40;;;0.30;;
41693;SDS011;27377;50.666;9.150;2023-04-24T12:42:34;0.60;;;0.40;;
41693;SDS011;27377;50.666;9.150;2023-04-24T12:45:04;0.35;;;0.35;;
41693;SDS011;27377;50.666;9.150;2023-04-24T12:47:31;0.30;;;0.30;;
41693;SDS011;27377;50.666;9.150;2023-04-24T12:49:58;0.50;;;0.30;;
41693;SDS011;27377;50.666;9.150;2023-04-24T12:52:24;0.50;;;0.30;;
41693;SDS011;27377;50.666;9.150;2023-04-24T12:54:54;0.35;;;0.30;;
41693;SDS011;27377;50.666;9.150;2023-04-24T12:57:21;0.50;;;0.30;;
41693;SDS011;27377;50.666;9.150;2023-04-24T12:59:54;0.57;;;0.20;;
41693;SDS011;27377;50.666;9.150;2023-04-24T13:02:21;1.25;;;0.32;;
41693;SDS011;27377;50.666;9.150;2023-04-24T13:04:47;1.23;;;0.50;;
41693;SDS011;27377;50.666;9.150;2023-04-24T13:07:14;0.80;;;0.50;;
41693;SDS011;27377;50.666;9.150;2023-04-24T13:09:40;2.43;;;0.77;;
41693;SDS011;27377;50.666;9.150;2023-04-24T13:12:06;1.40;;;0.53;;
41693;SDS011;27377;50.666;9.150;2023-04-24T13:14:33;2.17;;;0.70;;
41693;SDS011;27377;50.666;9.150;2023-04-24T13:16:58;2.33;;;0.60;;
41693;SDS011;27377;50.666;9.150;2023-04-24T13:19:24;2.90;;;0.60;;
41693;SDS011;27377;50.666;9.150;2023-04-24T13:21:51;1.63;;;0.50;;
41693;SDS011;27377;50.666;9.150;2023-04-24T13:24:17;0.88;;;0.60;;
41693;SDS011;27377;50.666;9.150;2023-04-24T13:26:43;1.77;;;0.50;;
41693;SDS011;27377;50.666;9.150;2023-04-24T13:29:08;1.55;;;0.70;;
41693;SDS011;27377;50.666;9.150;2023-04-24T13:31:34;1.88;;;0.80;;
41693;SDS011;27377;50.666;9.150;2023-04-24T13:34:01;2.10;;;0.80;;
41693;SDS011;27377;50.666;9.150;2023-04-24T13:36:27;1.83;;;0.80;;
41693;SDS011;27377;50.666;9.150;2023-04-24T13:38:53;1.77;;;0.90;;
41693;SDS011;27377;50.666;9.150;2023-04-24T13:41:19;2.07;;;0.90;;
41693;SDS011;27377;50.666;9.150;2023-04-24T13:43:45;2.43;;;1.00;;
41693;SDS011;27377;50.666;9.150;2023-04-24T13:46:10;4.17;;;0.97;;
41693;SDS011;27377;50.666;9.150;2023-04-24T13:48:36;2.50;;;1.10;;
41693;SDS011;27377;50.666;9.150;2023-04-24T13:51:01;2.87;;;1.30;;
41693;SDS011;27377;50.666;9.150;2023-04-24T13:53:27;3.50;;;1.47;;
41693;SDS011;27377;50.666;9.150;2023-04-24T13:55:53;4.00;;;1.50;;
41693;SDS011;27377;50.666;9.150;2023-04-24T13:58:18;3.47;;;1.63;;
41693;SDS011;27377;50.666;9.150;2023-04-24T14:00:44;4.47;;;1.67;;
41693;SDS011;27377;50.666;9.150;2023-04-24T14:03:10;3.92;;;1.60;;
41693;SDS011;27377;50.666;9.150;2023-04-24T14:05:35;3.30;;;1.70;;
41693;SDS011;27377;50.666;9.150;2023-04-24T14:08:01;3.13;;;1.50;;
41693;SDS011;27377;50.666;9.150;2023-04-24T14:10:27;3.00;;;1.50;;
41693;SDS011;27377;50.666;9.150;2023-04-24T14:12:53;4.10;;;1.63;;
41693;SDS011;27377;50.666;9.150;2023-04-24T14:15:18;4.10;;;1.80;;
41693;SDS011;27377;50.666;9.150;2023-04-24T14:17:44;5.45;;;1.80;;
41693;SDS011;27377;50.666;9.150;2023-04-24T14:20:10;4.00;;;1.60;;
41693;SDS011;27377;50.666;9.150;2023-04-24T14:22:37;3.40;;;1.80;;
41693;SDS011;27377;50.666;9.150;2023-04-24T14:25:02;4.23;;;1.90;;
41693;SDS011;27377;50.666;9.150;2023-04-24T14:27:29;5.70;;;2.00;;
41693;SDS011;27377;50.666;9.150;2023-04-24T14:29:55;5.20;;;2.38;;
41693;SDS011;27377;50.666;9.150;2023-04-24T14:32:21;6.00;;;2.30;;
41693;SDS011;27377;50.666;9.150;2023-04-24T14:34:47;6.67;;;2.67;;
41693;SDS011;27377;50.666;9.150;2023-04-24T14:37:12;7.63;;;2.80;;
41693;SDS011;27377;50.666;9.150;2023-04-24T14:39:38;8.18;;;3.17;;
41693;SDS011;27377;50.666;9.150;2023-04-24T14:42:03;8.63;;;3.63;;
41693;SDS011;27377;50.666;9.150;2023-04-24T14:44:29;7.87;;;2.97;;
41693;SDS011;27377;50.666;9.150;2023-04-24T14:46:55;9.23;;;3.50;;
41693;SDS011;27377;50.666;9.150;2023-04-24T14:49:20;8.30;;;3.50;;
41693;SDS011;27377;50.666;9.150;2023-04-24T14:51:46;8.67;;;3.40;;
41693;SDS011;27377;50.666;9.150;2023-04-24T14:54:11;7.20;;;3.17;;